sensor_id;sensor_type;location;lat;lon;timestamp;pressure;altitude;pressure_sealevel;temperature;humidity
67840;BME280;54636;51.684;5.142;2023-07-20T00:01:12;101419.81;;;17.06;100.00
67840;BME280;54636;51.684;5.142;2023-07-20T00:03:38;101417.47;;;17.16;100.00
67840;BME280;54636;51.684;5.142;2023-07-20T00:06:03;101430.47;;;17.16;100.00
67840;BME280;54636;51.684;5.142;2023-07-20T00:08:30;101431.22;;;17.16;100.00
67840;BME280;54636;51.684;5.142;2023-07-20T00:10:55;101424.78;;;17.08;100.00
67840;BME280;54636;51.684;5.142;2023-07-20T00:13:22;101430.88;;;16.95;100.00
67840;BME280;54636;51.684;5.142;2023-07-20T00:15:52;101433.44;;;16.88;100.00
67840;BME280;54636;51.684;5.142;2023-07-20T00:18:17;101429.50;;;16.77;100.00
67840;BME280;54636;51.684;5.142;2023-07-20T00:20:46;101428.84;;;16.66;100.00
67840;BME280;54636;51.684;5.142;2023-07-20T00:23:12;101427.09;;;16.57;100.00
67840;BME280;54636;51.684;5.142;2023-07-20T00:25:37;101422.94;;;16.45;100.00
67840;BME280;54636;51.684;5.142;2023-07-20T00:28:03;101424.94;;;16.39;100.00
67840;BME280;54636;51.684;5.142;2023-07-20T00:30:28;101418.75;;;16.33;100.00
67840;BME280;54636;51.684;5.142;2023-07-20T00:32:53;101428.47;;;16.28;100.00
67840;BME280;54636;51.684;5.142;2023-07-20T00:35:19;101430.53;;;16.22;100.00
67840;BME280;54636;51.684;5.142;2023-07-20T00:37:44;101432.78;;;16.18;100.00
67840;BME280;54636;51.684;5.142;2023-07-20T00:40:10;101437.28;;;16.16;100.00
67840;BME280;54636;51.684;5.142;2023-07-20T00:42:36;101435.53;;;16.18;100.00
67840;BME280;54636;51.684;5.142;2023-07-20T00:45:01;101428.09;;;16.07;100.00
67840;BME280;54636;51.684;5.142;2023-07-20T00:47:27;101435.50;;;16.24;100.00
67840;BME280;54636;51.684;5.142;2023-07-20T00:49:53;101434.03;;;16.23;100.00
67840;BME280;54636;51.684;5.142;2023-07-20T00:52:20;101441.50;;;16.22;100.00
67840;BME280;54636;51.684;5.142;2023-07-20T00:54:47;101445.25;;;16.19;100.00
67840;BME280;54636;51.684;5.142;2023-07-20T00:57:14;101441.50;;;16.17;100.00
67840;BME280;54636;51.684;5.142;2023-07-20T00:59:42;101452.72;;;16.19;100.00
67840;BME280;54636;51.684;5.142;2023-07-20T01:02:08;101440.03;;;16.16;100.00
67840;BME280;54636;51.684;5.142;2023-07-20T01:04:36;101445.25;;;16.13;100.00
67840;BME280;54636;51.684;5.142;2023-07-20T01:07:17;101447.00;;;16.11;100.00
67840;BME280;54636;51.684;5.142;2023-07-20T01:12:26;101442.81;;;16.04;100.00
67840;BME280;54636;51.684;5.142;2023-07-20T01:14:53;101433.34;;;16.00;100.00
67840;BME280;54636;51.684;5.142;2023-07-20T01:17:19;101447.53;;;16.04;100.00
67840;BME280;54636;51.684;5.142;2023-07-20T01:19:44;101456.50;;;16.04;100.00
67840;BME280;54636;51.684;5.142;2023-07-20T01:25:34;101453.50;;;16.08;100.00
67840;BME280;54636;51.684;5.142;2023-07-20T01:30:52;101436.38;;;15.85;100.00
67840;BME280;54636;51.684;5.142;2023-07-20T01:33:20;101434.88;;;15.78;100.00
67840;BME280;54636;51.684;5.142;2023-07-20T01:35:51;101437.13;;;15.80;100.00
67840;BME280;54636;51.684;5.142;2023-07-20T01:38:18;101442.13;;;15.76;100.00
67840;BME280;54636;51.684;5.142;2023-07-20T01:40:44;101443.34;;;15.75;100.00
67840;BME280;54636;51.684;5.142;2023-07-20T01:43:11;101446.09;;;15.69;100.00
67840;BME280;54636;51.684;5.142;2023-07-20T01:45:39;101443.13;;;15.56;100.00
67840;BME280;54636;51.684;5.142;2023-07-20T01:48:05;101456.06;;;15.56;100.00
67840;BME280;54636;51.684;5.142;2023-07-20T01:50:30;101449.38;;;15.45;100.00
67840;BME280;54636;51.684;5.142;2023-07-20T01:52:56;101446.63;;;15.45;100.00
67840;BME280;54636;51.684;5.142;2023-07-20T01:55:21;101442.88;;;15.54;100.00
67840;BME280;54636;51.684;5.142;2023-07-20T01:57:47;101458.56;;;15.65;100.00
67840;BME280;54636;51.684;5.142;2023-07-20T02:00:12;101461.81;;;15.63;100.00
67840;BME280;54636;51.684;5.142;2023-07-20T02:02:38;101456.06;;;15.61;100.00
67840;BME280;54636;51.684;5.142;2023-07-20T02:05:06;101449.59;;;15.53;100.00
67840;BME280;54636;51.684;5.142;2023-07-20T02:07:32;101461.84;;;15.58;100.00
67840;BME280;54636;51.684;5.142;2023-07-20T02:09:58;101465.28;;;15.64;100.00
67840;BME280;54636;51.684;5.142;2023-07-20T02:12:23;101461.03;;;15.68;100.00
67840;BME280;54636;51.684;5.142;2023-07-20T02:14:49;101462.03;;;15.71;100.00
67840;BME280;54636;51.684;5.142;2023-07-20T02:17:16;101465.78;;;15.73;100.00
67840;BME280;54636;51.684;5.142;2023-07-20T02:19:41;101477.72;;;15.81;100.00
67840;BME280;54636;51.684;5.142;2023-07-20T02:22:07;101477.22;;;15.83;100.00
67840;BME280;54636;51.684;5.142;2023-07-20T02:24:33;101471.00;;;15.77;100.00
67840;BME280;54636;51.684;5.142;2023-07-20T02:26:59;101475.47;;;15.74;100.00
67840;BME280;54636;51.684;5.142;2023-07-20T02:29:24;101475.25;;;15.67;100.00
67840;BME280;54636;51.684;5.142;2023-07-20T02:31:50;101469.75;;;15.61;100.00
67840;BME280;54636;51.684;5.142;2023-07-20T02:34:15;101461.06;;;15.46;100.00
67840;BME280;54636;51.684;5.142;2023-07-20T02:36:40;101480.50;;;15.59;100.00
67840;BME280;54636;51.684;5.142;2023-07-20T02:39:08;101487.19;;;15.53;100.00
67840;BME280;54636;51.684;5.142;2023-07-20T02:41:34;101484.44;;;15.41;100.00
67840;BME280;54636;51.684;5.142;2023-07-20T02:43:59;101483.19;;;15.31;100.00
67840;BME280;54636;51.684;5.142;2023-07-20T02:46:25;101488.16;;;15.22;100.00
67840;BME280;54636;51.684;5.142;2023-07-20T02:48:50;101484.91;;;15.06;100.00
67840;BME280;54636;51.684;5.142;2023-07-20T02:51:16;101471.22;;;14.95;100.00
67840;BME280;54636;51.684;5.142;2023-07-20T02:53:41;101493.84;;;14.96;100.00
67840;BME280;54636;51.684;5.142;2023-07-20T02:56:09;101498.09;;;14.91;100.00
67840;BME280;54636;51.684;5.142;2023-07-20T02:58:34;101501.81;;;14.94;100.00
67840;BME280;54636;51.684;5.142;2023-07-20T03:01:03;101492.63;;;14.91;100.00
67840;BME280;54636;51.684;5.142;2023-07-20T03:03:29;101489.59;;;14.83;100.00
67840;BME280;54636;51.684;5.142;2023-07-20T03:05:54;101496.53;;;14.73;100.00
67840;BME280;54636;51.684;5.142;2023-07-20T03:08:21;101496.03;;;14.69;100.00
67840;BME280;54636;51.684;5.142;2023-07-20T03:10:47;101500.72;;;14.63;100.00
67840;BME280;54636;51.684;5.142;2023-07-20T03:13:12;101508.66;;;14.56;100.00
67840;BME280;54636;51.684;5.142;2023-07-20T03:15:39;101503.16;;;14.50;100.00
67840;BME280;54636;51.684;5.142;2023-07-20T03:18:05;101506.06;;;14.41;100.00
67840;BME280;54636;51.684;5.142;2023-07-20T03:20:31;101516.53;;;14.42;100.00
67840;BME280;54636;51.684;5.142;2023-07-20T03:22:56;101520.72;;;14.38;100.00
67840;BME280;54636;51.684;5.142;2023-07-20T03:25:22;101514.97;;;14.30;100.00
67840;BME280;54636;51.684;5.142;2023-07-20T03:27:47;101522.44;;;14.30;100.00
67840;BME280;54636;51.684;5.142;2023-07-20T03:30:13;101519.66;;;14.24;100.00
67840;BME280;54636;51.684;5.142;2023-07-20T03:32:38;101518.16;;;14.23;100.00
67840;BME280;54636;51.684;5.142;2023-07-20T03:35:06;101515.16;;;14.15;100.00
67840;BME280;54636;51.684;5.142;2023-07-20T03:37:32;101520.88;;;14.17;100.00
67840;BME280;54636;51.684;5.142;2023-07-20T03:39:57;101516.38;;;14.14;100.00
67840;BME280;54636;51.684;5.142;2023-07-20T03:42:23;101505.34;;;13.98;100.00
67840;BME280;54636;51.684;5.142;2023-07-20T03:44:49;101530.28;;;14.11;100.00
67840;BME280;54636;51.684;5.142;2023-07-20T03:47:15;101524.06;;;14.10;100.00
67840;BME280;54636;51.684;5.142;2023-07-20T03:49:41;101530.50;;;14.07;100.00
67840;BME280;54636;51.684;5.142;2023-07-20T03:52:07;101523.50;;;14.01;100.00
67840;BME280;54636;51.684;5.142;2023-07-20T03:54:32;101525.25;;;14.04;100.00
67840;BME280;54636;51.684;5.142;2023-07-20T03:56:58;101531.94;;;14.03;100.00
67840;BME280;54636;51.684;5.142;2023-07-20T03:59:26;101536.44;;;14.06;100.00
67840;BME280;54636;51.684;5.142;2023-07-20T04:01:52;101529.97;;;14.03;100.00
67840;BME280;54636;51.684;5.142;2023-07-20T04:04:17;101515.22;;;13.90;100.00
67840;BME280;54636;51.684;5.142;2023-07-20T04:06:44;101539.91;;;14.06;100.00
67840;BME280;54636;51.684;5.142;2023-07-20T04:09:12;101537.19;;;14.06;100.00
67840;BME280;54636;51.684;5.142;2023-07-20T04:11:37;101539.47;;;14.13;100.00
67840;BME280;54636;51.684;5.142;2023-07-20T04:14:04;101495.84;;;13.88;100.00
67840;BME280;54636;51.684;5.142;2023-07-20T04:16:29;101523.78;;;14.08;100.00
67840;BME280;54636;51.684;5.142;2023-07-20T04:18:56;101516.78;;;14.02;100.00
67840;BME280;54636;51.684;5.142;2023-07-20T04:21:22;101539.69;;;14.10;100.00
67840;BME280;54636;51.684;5.142;2023-07-20T04:23:47;101530.28;;;14.11;100.00
67840;BME280;54636;51.684;5.142;2023-07-20T04:26:12;101537.50;;;14.14;100.00
67840;BME280;54636;51.684;5.142;2023-07-20T04:28:40;101526.81;;;14.16;100.00
67840;BME280;54636;51.684;5.142;2023-07-20T04:31:12;101535.53;;;14.20;100.00
67840;BME280;54636;51.684;5.142;2023-07-20T04:33:38;101541.28;;;14.22;100.00
67840;BME280;54636;51.684;5.142;2023-07-20T04:36:06;101529.38;;;14.31;100.00
67840;BME280;54636;51.684;5.142;2023-07-20T04:38:31;101535.25;;;14.55;100.00
67840;BME280;54636;51.684;5.142;2023-07-20T04:40:57;101524.59;;;14.63;100.00
67840;BME280;54636;51.684;5.142;2023-07-20T04:43:22;101534.19;;;15.18;100.00
67840;BME280;54636;51.684;5.142;2023-07-20T04:45:48;101535.00;;;15.63;100.00
67840;BME280;54636;51.684;5.142;2023-07-20T04:48:17;101516.06;;;15.54;100.00
67840;BME280;54636;51.684;5.142;2023-07-20T04:50:45;101538.72;;;15.48;100.00
67840;BME280;54636;51.684;5.142;2023-07-20T04:53:12;101528.47;;;15.27;100.00
67840;BME280;54636;51.684;5.142;2023-07-20T04:55:39;101535.44;;;15.16;100.00
67840;BME280;54636;51.684;5.142;2023-07-20T04:58:05;101534.41;;;15.08;100.00
67840;BME280;54636;51.684;5.142;2023-07-20T05:00:32;101532.91;;;15.02;100.00
67840;BME280;54636;51.684;5.142;2023-07-20T05:02:57;101530.41;;;14.98;100.00
67840;BME280;54636;51.684;5.142;2023-07-20T05:05:23;101537.13;;;14.97;100.00
67840;BME280;54636;51.684;5.142;2023-07-20T05:07:48;101532.41;;;14.92;100.00
67840;BME280;54636;51.684;5.142;2023-07-20T05:10:14;101530.16;;;14.91;100.00
67840;BME280;54636;51.684;5.142;2023-07-20T05:12:39;101532.41;;;14.92;100.00
67840;BME280;54636;51.684;5.142;2023-07-20T05:15:05;101533.16;;;14.93;100.00
67840;BME280;54636;51.684;5.142;2023-07-20T05:17:30;101511.72;;;14.74;100.00
67840;BME280;54636;51.684;5.142;2023-07-20T05:19:56;101533.66;;;14.91;100.00
67840;BME280;54636;51.684;5.142;2023-07-20T05:22:21;101539.88;;;14.92;100.00
67840;BME280;54636;51.684;5.142;2023-07-20T05:24:47;101539.84;;;14.97;100.00
67840;BME280;54636;51.684;5.142;2023-07-20T05:27:12;101545.84;;;15.01;100.00
67840;BME280;54636;51.684;5.142;2023-07-20T05:29:37;101546.59;;;15.02;100.00
67840;BME280;54636;51.684;5.142;2023-07-20T05:32:03;101549.31;;;15.02;100.00
67840;BME280;54636;51.684;5.142;2023-07-20T05:34:29;101551.81;;;15.05;100.00
67840;BME280;54636;51.684;5.142;2023-07-20T05:36:55;101565.75;;;15.07;100.00
67840;BME280;54636;51.684;5.142;2023-07-20T05:39:20;101553.06;;;15.10;100.00
67840;BME280;54636;51.684;5.142;2023-07-20T05:41:45;101562.03;;;15.16;100.00
67840;BME280;54636;51.684;5.142;2023-07-20T05:44:11;101543.59;;;15.05;100.00
67840;BME280;54636;51.684;5.142;2023-07-20T05:46:36;101525.44;;;14.97;100.00
67840;BME280;54636;51.684;5.142;2023-07-20T05:49:02;101566.53;;;15.25;100.00
67840;BME280;54636;51.684;5.142;2023-07-20T05:51:27;101560.31;;;15.24;100.00
67840;BME280;54636;51.684;5.142;2023-07-20T05:53:53;101565.56;;;15.28;100.00
67840;BME280;54636;51.684;5.142;2023-07-20T05:56:18;101564.06;;;15.32;100.00
67840;BME280;54636;51.684;5.142;2023-07-20T05:58:43;101562.09;;;15.33;100.00
67840;BME280;54636;51.684;5.142;2023-07-20T06:01:09;101553.38;;;15.34;100.00
67840;BME280;54636;51.684;5.142;2023-07-20T06:03:34;101542.91;;;15.33;100.00
67840;BME280;54636;51.684;5.142;2023-07-20T06:06:00;101559.38;;;15.44;100.00
67840;BME280;54636;51.684;5.142;2023-07-20T06:08:30;101562.63;;;15.54;100.00
67840;BME280;54636;51.684;5.142;2023-07-20T06:10:56;101558.13;;;15.56;100.00
67840;BME280;54636;51.684;5.142;2023-07-20T06:13:22;101573.59;;;15.70;100.00
67840;BME280;54636;51.684;5.142;2023-07-20T06:15:47;101569.34;;;15.69;100.00
67840;BME280;54636;51.684;5.142;2023-07-20T06:18:13;101579.56;;;15.86;100.00
67840;BME280;54636;51.684;5.142;2023-07-20T06:20:38;101584.28;;;16.13;100.00
67840;BME280;54636;51.684;5.142;2023-07-20T06:23:04;101588.97;;;16.35;100.00
67840;BME280;54636;51.684;5.142;2023-07-20T06:25:30;101588.72;;;16.38;100.00
67840;BME280;54636;51.684;5.142;2023-07-20T06:27:55;101593.69;;;16.34;100.00
67840;BME280;54636;51.684;5.142;2023-07-20T06:30:21;101584.47;;;16.37;100.00
67840;BME280;54636;51.684;5.142;2023-07-20T06:32:47;101583.97;;;16.39;100.00
67840;BME280;54636;51.684;5.142;2023-07-20T06:35:13;101582.47;;;16.43;100.00
67840;BME280;54636;51.684;5.142;2023-07-20T06:37:38;101577.25;;;16.40;100.00
67840;BME280;54636;51.684;5.142;2023-07-20T06:40:04;101581.97;;;16.45;100.00
67840;BME280;54636;51.684;5.142;2023-07-20T06:42:30;101572.75;;;16.42;100.00
67840;BME280;54636;51.684;5.142;2023-07-20T06:44:57;101583.44;;;16.52;100.00
67840;BME280;54636;51.684;5.142;2023-07-20T06:47:22;101567.03;;;16.35;100.00
67840;BME280;54636;51.684;5.142;2023-07-20T06:49:48;101586.22;;;16.40;100.00
67840;BME280;54636;51.684;5.142;2023-07-20T06:52:13;101579.22;;;16.45;100.00
67840;BME280;54636;51.684;5.142;2023-07-20T06:54:38;101575.94;;;16.58;100.00
67840;BME280;54636;51.684;5.142;2023-07-20T06:57:05;101571.97;;;16.64;100.00
67840;BME280;54636;51.684;5.142;2023-07-20T06:59:30;101586.75;;;17.02;100.00
67840;BME280;54636;51.684;5.142;2023-07-20T07:01:56;101575.88;;;17.27;100.00
67840;BME280;54636;51.684;5.142;2023-07-20T07:04:21;101586.75;;;17.49;100.00
67840;BME280;54636;51.684;5.142;2023-07-20T07:06:46;101579.47;;;17.52;100.00
67840;BME280;54636;51.684;5.142;2023-07-20T07:09:12;101588.75;;;17.49;100.00
67840;BME280;54636;51.684;5.142;2023-07-20T07:11:37;101575.19;;;17.21;100.00
67840;BME280;54636;51.684;5.142;2023-07-20T07:14:03;101584.72;;;17.08;100.00
67840;BME280;54636;51.684;5.142;2023-07-20T07:16:28;101589.00;;;16.98;100.00
67840;BME280;54636;51.684;5.142;2023-07-20T07:18:53;101590.50;;;16.99;100.00
67840;BME280;54636;51.684;5.142;2023-07-20T07:21:19;101593.34;;;17.65;100.00
67840;BME280;54636;51.684;5.142;2023-07-20T07:23:45;101594.25;;;18.57;99.88
67840;BME280;54636;51.684;5.142;2023-07-20T07:26:11;101591.16;;;19.92;94.29
67840;BME280;54636;51.684;5.142;2023-07-20T07:28:37;101593.09;;;20.37;89.67
67840;BME280;54636;51.684;5.142;2023-07-20T07:31:06;101588.44;;;20.58;89.08
67840;BME280;54636;51.684;5.142;2023-07-20T07:33:32;101575.13;;;21.17;87.15
67840;BME280;54636;51.684;5.142;2023-07-20T07:35:57;101586.84;;;21.65;84.07
67840;BME280;54636;51.684;5.142;2023-07-20T07:38:23;101588.19;;;21.92;81.34
67840;BME280;54636;51.684;5.142;2023-07-20T07:40:48;101595.16;;;22.07;75.54
67840;BME280;54636;51.684;5.142;2023-07-20T07:43:13;101594.94;;;21.84;79.41
67840;BME280;54636;51.684;5.142;2023-07-20T07:45:39;101596.88;;;21.55;78.25
67840;BME280;54636;51.684;5.142;2023-07-20T07:48:08;101584.28;;;21.12;80.97
67840;BME280;54636;51.684;5.142;2023-07-20T07:50:36;101599.41;;;20.98;79.05
67840;BME280;54636;51.684;5.142;2023-07-20T07:53:03;101606.28;;;20.70;83.86
67840;BME280;54636;51.684;5.142;2023-07-20T07:55:28;101611.22;;;20.32;82.12
67840;BME280;54636;51.684;5.142;2023-07-20T07:57:54;101610.53;;;19.87;78.77
67840;BME280;54636;51.684;5.142;2023-07-20T08:00:19;101616.03;;;19.55;83.94
67840;BME280;54636;51.684;5.142;2023-07-20T08:02:45;101615.38;;;19.30;85.87
67840;BME280;54636;51.684;5.142;2023-07-20T08:05:13;101588.59;;;18.93;87.89
67840;BME280;54636;51.684;5.142;2023-07-20T08:07:39;101622.47;;;19.06;84.09
67840;BME280;54636;51.684;5.142;2023-07-20T08:10:05;101619.41;;;19.10;82.22
67840;BME280;54636;51.684;5.142;2023-07-20T08:12:31;101624.03;;;19.21;85.79
67840;BME280;54636;51.684;5.142;2023-07-20T08:14:57;101625.22;;;19.25;86.63
67840;BME280;54636;51.684;5.142;2023-07-20T08:17:22;101627.88;;;19.50;82.42
67840;BME280;54636;51.684;5.142;2023-07-20T08:19:48;101617.09;;;19.84;80.38
67840;BME280;54636;51.684;5.142;2023-07-20T08:22:13;101612.50;;;20.05;82.36
67840;BME280;54636;51.684;5.142;2023-07-20T08:24:40;101625.56;;;20.31;80.85
67840;BME280;54636;51.684;5.142;2023-07-20T08:27:09;101616.38;;;20.55;72.94
67840;BME280;54636;51.684;5.142;2023-07-20T08:29:35;101627.78;;;20.85;72.84
67840;BME280;54636;51.684;5.142;2023-07-20T08:32:00;101615.78;;;20.96;68.97
67840;BME280;54636;51.684;5.142;2023-07-20T08:34:26;101617.03;;;21.08;69.71
67840;BME280;54636;51.684;5.142;2023-07-20T08:36:51;101617.03;;;21.08;67.13
67840;BME280;54636;51.684;5.142;2023-07-20T08:39:17;101621.84;;;20.94;65.19
67840;BME280;54636;51.684;5.142;2023-07-20T08:41:43;101617.94;;;20.77;65.41
67840;BME280;54636;51.684;5.142;2023-07-20T08:44:10;101621.56;;;20.71;71.93
67840;BME280;54636;51.684;5.142;2023-07-20T08:46:38;101610.41;;;20.51;71.20
67840;BME280;54636;51.684;5.142;2023-07-20T08:49:04;101608.50;;;20.46;76.05
67840;BME280;54636;51.684;5.142;2023-07-20T08:51:30;101611.78;;;20.70;69.50
67840;BME280;54636;51.684;5.142;2023-07-20T08:53:56;101609.63;;;20.90;64.80
67840;BME280;54636;51.684;5.142;2023-07-20T08:56:24;101601.06;;;20.67;67.60
67840;BME280;54636;51.684;5.142;2023-07-20T08:58:54;101608.56;;;20.93;66.37
67840;BME280;54636;51.684;5.142;2023-07-20T09:01:20;101597.91;;;21.44;70.51
67840;BME280;54636;51.684;5.142;2023-07-20T09:03:45;101607.75;;;21.94;62.19
67840;BME280;54636;51.684;5.142;2023-07-20T09:06:12;101610.19;;;22.26;63.79
67840;BME280;54636;51.684;5.142;2023-07-20T09:08:39;101605.63;;;22.65;63.47
67840;BME280;54636;51.684;5.142;2023-07-20T09:11:04;101586.88;;;22.79;60.59
67840;BME280;54636;51.684;5.142;2023-07-20T09:13:29;101605.94;;;22.90;59.07
67840;BME280;54636;51.684;5.142;2023-07-20T09:15:55;101606.88;;;22.92;57.88
67840;BME280;54636;51.684;5.142;2023-07-20T09:18:29;101606.56;;;22.67;58.39
67840;BME280;54636;51.684;5.142;2023-07-20T09:21:02;101608.31;;;22.50;61.67
67840;BME280;54636;51.684;5.142;2023-07-20T09:23:32;101608.44;;;22.37;60.25
67840;BME280;54636;51.684;5.142;2023-07-20T09:25:58;101584.63;;;22.05;60.33
67840;BME280;54636;51.684;5.142;2023-07-20T09:28:23;101597.44;;;22.23;59.57
67840;BME280;54636;51.684;5.142;2023-07-20T09:30:49;101610.09;;;22.40;60.57
67840;BME280;54636;51.684;5.142;2023-07-20T09:33:24;101605.84;;;22.39;61.37
67840;BME280;54636;51.684;5.142;2023-07-20T09:35:49;101604.97;;;22.44;58.69
67840;BME280;54636;51.684;5.142;2023-07-20T09:38:15;101604.34;;;22.66;59.00
67840;BME280;54636;51.684;5.142;2023-07-20T09:40:41;101591.81;;;22.73;55.47
67840;BME280;54636;51.684;5.142;2023-07-20T09:43:09;101587.81;;;22.81;57.88
67840;BME280;54636;51.684;5.142;2023-07-20T09:45:39;101606.63;;;22.83;59.43
67840;BME280;54636;51.684;5.142;2023-07-20T09:48:06;101592.53;;;22.65;60.64
67840;BME280;54636;51.684;5.142;2023-07-20T09:50:33;101595.69;;;22.33;59.77
67840;BME280;54636;51.684;5.142;2023-07-20T09:53:00;101593.56;;;21.98;59.61
67840;BME280;54636;51.684;5.142;2023-07-20T09:55:27;101589.63;;;21.65;64.22
67840;BME280;54636;51.684;5.142;2023-07-20T09:57:54;101593.38;;;21.54;63.26
67840;BME280;54636;51.684;5.142;2023-07-20T10:00:21;101583.00;;;21.47;66.18
67840;BME280;54636;51.684;5.142;2023-07-20T10:02:46;101587.13;;;21.33;63.23
67840;BME280;54636;51.684;5.142;2023-07-20T10:05:15;101585.19;;;21.41;63.21
67840;BME280;54636;51.684;5.142;2023-07-20T10:07:50;101580.66;;;21.72;61.64
67840;BME280;54636;51.684;5.142;2023-07-20T10:10:18;101589.66;;;21.93;61.47
67840;BME280;54636;51.684;5.142;2023-07-20T10:12:47;101588.91;;;22.14;63.57
67840;BME280;54636;51.684;5.142;2023-07-20T10:15:19;101585.44;;;22.21;62.34
67840;BME280;54636;51.684;5.142;2023-07-20T10:18:12;101584.25;;;22.37;60.72
67840;BME280;54636;51.684;5.142;2023-07-20T10:20:43;101594.53;;;22.29;58.78
67840;BME280;54636;51.684;5.142;2023-07-20T10:23:10;101586.53;;;22.18;59.28
67840;BME280;54636;51.684;5.142;2023-07-20T10:25:37;101585.03;;;22.09;62.01
67840;BME280;54636;51.684;5.142;2023-07-20T10:28:06;101569.22;;;21.96;59.01
67840;BME280;54636;51.684;5.142;2023-07-20T10:30:36;101582.09;;;22.15;59.94
67840;BME280;54636;51.684;5.142;2023-07-20T10:33:05;101585.09;;;22.24;55.68
67840;BME280;54636;51.684;5.142;2023-07-20T10:35:31;101589.47;;;22.48;57.95
67840;BME280;54636;51.684;5.142;2023-07-20T10:38:15;101592.47;;;22.94;55.55
67840;BME280;54636;51.684;5.142;2023-07-20T10:40:56;101580.84;;;22.95;56.89
67840;BME280;54636;51.684;5.142;2023-07-20T10:43:21;101574.16;;;22.91;53.42
67840;BME280;54636;51.684;5.142;2023-07-20T10:45:53;101577.09;;;22.85;54.86
67840;BME280;54636;51.684;5.142;2023-07-20T10:48:21;101574.44;;;22.64;55.17
67840;BME280;54636;51.684;5.142;2023-07-20T10:51:12;101576.06;;;22.60;58.49
67840;BME280;54636;51.684;5.142;2023-07-20T10:53:41;101559.38;;;22.45;58.88
67840;BME280;54636;51.684;5.142;2023-07-20T10:56:15;101565.31;;;22.49;60.04
67840;BME280;54636;51.684;5.142;2023-07-20T10:58:41;101570.47;;;22.45;57.91
67840;BME280;54636;51.684;5.142;2023-07-20T11:01:07;101561.97;;;22.43;58.67
67840;BME280;54636;51.684;5.142;2023-07-20T11:03:36;101553.00;;;22.57;60.21
67840;BME280;54636;51.684;5.142;2023-07-20T11:09:05;101562.25;;;23.42;56.22
67840;BME280;54636;51.684;5.142;2023-07-20T11:11:35;101565.63;;;23.71;58.03
67840;BME280;54636;51.684;5.142;2023-07-20T11:14:06;101561.31;;;24.15;52.23
67840;BME280;54636;51.684;5.142;2023-07-20T11:16:41;101553.34;;;24.27;51.71
67840;BME280;54636;51.684;5.142;2023-07-20T11:19:23;101556.25;;;24.52;51.76
67840;BME280;54636;51.684;5.142;2023-07-20T11:21:54;101543.13;;;24.45;49.14
67840;BME280;54636;51.684;5.142;2023-07-20T11:24:20;101536.72;;;24.12;48.92
67840;BME280;54636;51.684;5.142;2023-07-20T11:26:53;101542.81;;;24.10;53.37
67840;BME280;54636;51.684;5.142;2023-07-20T11:29:20;101546.00;;;23.91;51.10
67840;BME280;54636;51.684;5.142;2023-07-20T11:31:46;101546.03;;;23.69;51.56
67840;BME280;54636;51.684;5.142;2023-07-20T11:34:14;101544.38;;;23.58;52.13
67840;BME280;54636;51.684;5.142;2023-07-20T11:36:49;101538.44;;;23.54;52.57
67840;BME280;54636;51.684;5.142;2023-07-20T11:39:17;101525.69;;;23.81;52.81
67840;BME280;54636;51.684;5.142;2023-07-20T11:41:48;101537.06;;;24.31;52.21
67840;BME280;54636;51.684;5.142;2023-07-20T11:44:16;101518.69;;;24.76;48.21
67840;BME280;54636;51.684;5.142;2023-07-20T11:46:42;101533.81;;;25.47;45.69
67840;BME280;54636;51.684;5.142;2023-07-20T11:49:09;101530.34;;;25.64;45.85
67840;BME280;54636;51.684;5.142;2023-07-20T11:51:35;101530.72;;;25.85;46.59
67840;BME280;54636;51.684;5.142;2023-07-20T11:54:03;101530.06;;;25.95;43.89
67840;BME280;54636;51.684;5.142;2023-07-20T11:56:31;101521.72;;;25.95;45.53
67840;BME280;54636;51.684;5.142;2023-07-20T11:59:00;101514.44;;;25.82;46.15
67840;BME280;54636;51.684;5.142;2023-07-20T12:01:27;101509.84;;;25.35;46.70
67840;BME280;54636;51.684;5.142;2023-07-20T12:03:59;101519.41;;;25.16;44.87
67840;BME280;54636;51.684;5.142;2023-07-20T12:06:25;101514.91;;;24.96;47.72
67840;BME280;54636;51.684;5.142;2023-07-20T12:08:50;101500.22;;;24.71;46.94
67840;BME280;54636;51.684;5.142;2023-07-20T12:11:37;101526.88;;;24.34;48.71
67840;BME280;54636;51.684;5.142;2023-07-20T12:14:04;101526.53;;;24.07;49.19
67840;BME280;54636;51.684;5.142;2023-07-20T12:16:32;101508.84;;;23.94;49.66
67840;BME280;54636;51.684;5.142;2023-07-20T12:19:11;101531.22;;;23.81;49.96
67840;BME280;54636;51.684;5.142;2023-07-20T12:21:41;101509.44;;;23.40;50.39
67840;BME280;54636;51.684;5.142;2023-07-20T12:24:07;101522.16;;;23.43;51.12
67840;BME280;54636;51.684;5.142;2023-07-20T12:26:34;101513.84;;;23.50;53.25
67840;BME280;54636;51.684;5.142;2023-07-20T12:29:01;101518.28;;;23.61;51.81
67840;BME280;54636;51.684;5.142;2023-07-20T12:31:28;101523.66;;;23.67;49.84
67840;BME280;54636;51.684;5.142;2023-07-20T12:33:56;101521.41;;;23.42;50.66
67840;BME280;54636;51.684;5.142;2023-07-20T12:36:22;101529.19;;;23.44;50.64
67840;BME280;54636;51.684;5.142;2023-07-20T12:38:47;101526.41;;;23.51;49.80
67840;BME280;54636;51.684;5.142;2023-07-20T12:41:13;101533.97;;;23.51;50.38
67840;BME280;54636;51.684;5.142;2023-07-20T12:43:43;101532.69;;;23.52;51.21
67840;BME280;54636;51.684;5.142;2023-07-20T12:46:09;101534.56;;;23.57;51.78
67840;BME280;54636;51.684;5.142;2023-07-20T12:48:36;101527.31;;;23.46;51.77
67840;BME280;54636;51.684;5.142;2023-07-20T12:51:06;101531.41;;;23.38;49.08
67840;BME280;54636;51.684;5.142;2023-07-20T12:53:32;101529.91;;;23.14;49.30
67840;BME280;54636;51.684;5.142;2023-07-20T12:55:58;101536.19;;;23.14;51.67